< < Back
Terminal Aerodrome Forecast


Current Version              Previous Versions:   1  2  3  4  5  6  7  8  9  

Terminal Aerodrome Forecast

912
FTUS44 KHUN 011725
TAFHSV
TAF
KHSV 011725Z 0118/0218 06005KT P6SM SCT050 SCT250
     FM020100 12005KT P6SM BKN050 BKN250
     FM021200 15008KT P6SM VCSH BKN025=

Latest METAR

494
SAUS80 KWBC 012100 CCB
MTRHSV
METAR KHSV 012053Z VRB03KT 10SM FEW040 BKN250 26/11 A3002 RMK AO2 SLP159
T02610111 57019


USA.gov is the U.S. government's official web portal to all federal, state and local government web resources and services.